Zandhoven, Belgium
Current Conditions -  °F | °C
As of 10:20 AM on Tuesday 21 Oct 2014 (Local Time) from EBAW Reporting Station
Rain Showers Rain Showers  
Wind Chill: 55°   Ceiling: 1200
Heat Index: 55°   Visibility: 6mi
Dew Point: 50°   Wind: 17mph
Humidity: 82%   Direction: 200°SSW
Pressure: 29.68"   Gusts: NA
Location:  51.21°N, 4.66°E
Report Text: EBAW 210820Z 20015KT 9999 -SHRA BKN012 BKN039 13/10 Q1005 TEMPO 21015G25KT
Loading
Personal Weather Stations






























Interactive Weather Map
Tropical Storm Tracking
New forecast layout! Learn more

10-Day Weather Forecast

Advertisements
Track Severe Weather on mobile